Time;durP1;ratioP1;P1;durP2;ratioP2;P2;SDS_P1;SDS_P2;PMS_P1;PMS_P2;Temp;Humidity;BMP_temperature;BMP_pressure;BME280_temperature;BME280_humidity;BME280_pressure;Samples;Min_cycle;Max_cycle;Signal;HPM_P1;HPM_P2
2022/04/08 00:01:25;;;;;;;6.30;1.80;;;8.20;99.90;;;;;;6218777;23;20147;-86
2022/04/08 00:03:53;;;;;;;6.63;2.03;;;8.20;99.90;;;;;;6218027;23;20152;-86
2022/04/08 00:06:19;;;;;;;7.47;1.80;;;8.10;99.90;;;;;;6218945;23;20269;-86
2022/04/08 00:08:46;;;;;;;5.60;2.03;;;8.10;99.90;;;;;;6220154;23;20167;-86
2022/04/08 00:11:12;;;;;;;6.67;1.90;;;8.10;99.90;;;;;;6219920;23;20573;-86
2022/04/08 00:13:38;;;;;;;6.93;1.97;;;8.20;99.90;;;;;;6220347;23;20143;-86
2022/04/08 00:16:05;;;;;;;6.47;1.73;;;8.40;99.90;;;;;;6247042;23;20146;-85
2022/04/08 00:18:31;;;;;;;4.43;1.70;;;8.40;99.90;;;;;;6220429;23;20143;-86
2022/04/08 00:20:57;;;;;;;4.87;1.70;;;8.40;99.90;;;;;;6219697;23;20152;-86
2022/04/08 00:23:22;;;;;;;8.20;1.83;;;8.30;99.90;;;;;;6219756;23;20151;-87
2022/04/08 00:25:48;;;;;;;10.80;1.93;;;8.30;99.90;;;;;;6220895;23;20147;-87
2022/04/08 00:28:14;;;;;;;7.13;1.93;;;8.30;99.90;;;;;;6220931;23;20152;-86
2022/04/08 00:30:39;;;;;;;5.87;1.73;;;8.40;99.90;;;;;;6220076;23;20147;-86
2022/04/08 00:33:05;;;;;;;3.97;1.80;;;8.40;99.90;;;;;;6220983;23;20147;-86
2022/04/08 00:35:31;;;;;;;6.73;1.77;;;8.30;99.90;;;;;;6220419;23;20666;-86
2022/04/08 00:37:57;;;;;;;5.23;1.80;;;8.40;99.90;;;;;;6220608;23;20584;-85
2022/04/08 00:40:23;;;;;;;5.40;2.00;;;8.20;99.90;;;;;;6220351;23;20147;-86
2022/04/08 00:42:49;;;;;;;2.80;2.00;;;8.00;99.90;;;;;;6220534;23;20155;-86
2022/04/08 00:45:14;;;;;;;6.30;1.70;;;8.00;99.90;;;;;;6220575;23;20157;-86
2022/04/08 00:47:41;;;;;;;5.03;1.80;;;8.00;99.90;;;;;;6220706;23;20281;-86
2022/04/08 00:50:08;;;;;;;8.63;2.07;;;8.10;99.90;;;;;;6220545;23;20185;-86
2022/04/08 00:52:35;;;;;;;6.73;1.87;;;8.20;99.90;;;;;;6220816;23;20150;-86
2022/04/08 00:55:06;;;;;;;4.80;2.10;;;8.20;99.90;;;;;;6220318;23;20148;-86
2022/04/08 00:57:33;;;;;;;5.53;2.00;;;8.30;99.90;;;;;;6220135;23;20148;-86
2022/04/08 01:00:09;;;;;;;4.77;2.20;;;8.20;99.90;;;;;;6219676;23;20222;-86
2022/04/08 01:02:35;;;;;;;5.03;1.53;;;8.20;99.90;;;;;;6220256;23;20524;-86
2022/04/08 01:05:02;;;;;;;9.23;1.83;;;8.10;99.90;;;;;;6219912;23;20500;-86
2022/04/08 01:07:27;;;;;;;9.57;1.97;;;8.10;99.90;;;;;;6220696;23;20620;-86
2022/04/08 01:09:54;;;;;;;7.07;1.70;;;8.10;99.90;;;;;;6220456;23;20245;-86
2022/04/08 01:12:20;;;;;;;6.27;1.83;;;8.00;99.90;;;;;;6219302;23;20243;-86
2022/04/08 01:14:46;;;;;;;4.57;1.53;;;8.00;99.90;;;;;;6219137;23;20143;-86
2022/04/08 01:17:11;;;;;;;3.27;2.10;;;8.10;99.90;;;;;;6218863;23;20160;-85
2022/04/08 01:19:37;;;;;;;6.13;1.83;;;8.20;99.90;;;;;;6219984;23;20151;-86
2022/04/08 01:22:03;;;;;;;4.33;1.70;;;8.20;99.90;;;;;;6220096;23;20158;-86
2022/04/08 01:24:30;;;;;;;8.07;1.90;;;8.10;99.90;;;;;;6220063;23;20148;-86
2022/04/08 01:26:56;;;;;;;5.20;2.20;;;8.20;99.90;;;;;;6220370;23;20651;-86
2022/04/08 01:29:22;;;;;;;7.30;2.33;;;8.20;99.90;;;;;;6220048;23;20218;-86
2022/04/08 01:31:47;;;;;;;6.57;2.03;;;8.20;99.90;;;;;;6219789;23;20163;-86
2022/04/08 01:34:13;;;;;;;4.40;2.13;;;8.20;99.90;;;;;;6219896;23;20592;-86
2022/04/08 01:36:39;;;;;;;5.93;2.03;;;8.20;99.90;;;;;;6219819;23;20166;-86
2022/04/08 01:39:06;;;;;;;4.27;1.83;;;8.20;99.90;;;;;;6219551;23;20222;-86
2022/04/08 01:41:31;;;;;;;8.30;2.30;;;8.30;99.90;;;;;;6218268;23;20144;-86
2022/04/08 01:43:57;;;;;;;6.70;2.53;;;8.30;99.90;;;;;;6219449;23;20163;-86
2022/04/08 01:46:23;;;;;;;4.83;2.00;;;8.10;99.90;;;;;;6219367;23;20190;-86
2022/04/08 01:48:54;;;;;;;6.70;2.60;;;8.00;99.90;;;;;;6219200;23;20140;-85
2022/04/08 01:51:21;;;;;;;4.80;2.20;;;8.00;99.90;;;;;;6219265;23;20175;-85
2022/04/08 01:53:46;;;;;;;5.03;1.90;;;8.10;99.90;;;;;;6218589;23;20148;-86
2022/04/08 01:56:13;;;;;;;5.30;1.90;;;8.10;99.90;;;;;;6218079;23;20155;-86
2022/04/08 01:58:39;;;;;;;6.97;2.20;;;8.00;99.90;;;;;;6218340;23;20147;-86
2022/04/08 02:01:05;;;;;;;4.17;2.10;;;8.00;99.90;;;;;;6218141;23;20226;-85
2022/04/08 02:03:30;;;;;;;9.17;2.40;;;8.00;99.90;;;;;;6219632;23;20155;-86
2022/04/08 02:05:56;;;;;;;2.80;1.80;;;8.10;99.90;;;;;;6219779;23;20187;-86
2022/04/08 02:08:22;;;;;;;2.50;1.70;;;8.10;99.90;;;;;;6219641;23;20198;-86
2022/04/08 02:10:48;;;;;;;4.43;2.17;;;8.00;99.90;;;;;;6218299;23;20155;-86
2022/04/08 02:13:13;;;;;;;4.67;1.80;;;7.90;99.90;;;;;;6219849;23;20143;-86
2022/04/08 02:15:39;;;;;;;3.70;2.53;;;8.00;99.90;;;;;;6219562;23;20175;-86
2022/04/08 02:18:05;;;;;;;4.53;2.07;;;8.10;99.90;;;;;;6219465;23;20144;-86
2022/04/08 02:20:31;;;;;;;5.27;2.47;;;8.20;99.90;;;;;;6218236;23;20163;-86
2022/04/08 02:22:58;;;;;;;6.43;2.10;;;8.20;99.90;;;;;;6219200;23;20157;-86
2022/04/08 02:25:25;;;;;;;6.50;2.10;;;8.20;99.90;;;;;;6219746;23;20150;-86
2022/04/08 02:27:51;;;;;;;7.03;2.10;;;8.10;99.90;;;;;;6219575;23;20269;-86
2022/04/08 02:30:17;;;;;;;7.83;2.57;;;8.00;99.90;;;;;;6219136;23;20150;-85
2022/04/08 02:32:44;;;;;;;7.03;2.10;;;8.00;99.90;;;;;;6218991;23;20227;-86
2022/04/08 02:35:09;;;;;;;7.07;2.60;;;8.00;99.90;;;;;;6218839;23;20172;-86
2022/04/08 02:37:35;;;;;;;5.60;2.40;;;8.00;99.90;;;;;;6219619;23;20162;-86
2022/04/08 02:40:01;;;;;;;7.43;2.50;;;7.90;99.90;;;;;;6219482;23;20175;-86
2022/04/08 02:42:30;;;;;;;6.23;2.50;;;8.00;99.90;;;;;;6219578;23;20136;-86
2022/04/08 02:44:57;;;;;;;3.93;2.63;;;8.00;99.90;;;;;;6246655;23;20163;-86
2022/04/08 02:47:22;;;;;;;6.80;2.43;;;8.00;99.90;;;;;;6218185;23;20183;-86
2022/04/08 02:49:48;;;;;;;6.17;2.40;;;7.90;99.90;;;;;;6219491;23;20214;-85
2022/04/08 02:52:15;;;;;;;4.57;2.43;;;7.90;99.90;;;;;;6244260;23;20148;-86
2022/04/08 02:54:40;;;;;;;8.23;2.50;;;7.90;99.90;;;;;;6219107;23;20151;-86
2022/04/08 02:57:06;;;;;;;7.23;3.40;;;7.90;99.90;;;;;;6221888;23;20152;-86
2022/04/08 02:59:32;;;;;;;8.80;2.80;;;8.00;99.90;;;;;;6219957;23;20250;-86
2022/04/08 03:01:57;;;;;;;7.37;2.77;;;8.00;99.90;;;;;;6219403;23;20143;-86
2022/04/08 03:04:25;;;;;;;6.20;3.00;;;8.00;99.90;;;;;;6219561;23;20158;-87
2022/04/08 03:06:51;;;;;;;10.97;3.30;;;7.90;99.90;;;;;;6219012;23;20532;-86
2022/04/08 03:09:17;;;;;;;7.37;3.30;;;8.10;99.90;;;;;;6219018;23;20155;-86
2022/04/08 03:11:43;;;;;;;6.20;3.07;;;8.10;99.90;;;;;;6219140;23;20147;-86
2022/04/08 03:14:08;;;;;;;6.20;3.13;;;8.10;99.90;;;;;;6218829;23;20610;-87
2022/04/08 03:16:34;;;;;;;8.30;3.60;;;8.10;99.90;;;;;;6219530;23;20262;-86
2022/04/08 03:18:59;;;;;;;8.53;3.30;;;8.10;99.90;;;;;;6219324;23;20309;-86
2022/04/08 03:21:27;;;;;;;8.90;3.60;;;8.10;99.90;;;;;;6219376;23;20529;-86
2022/04/08 03:23:53;;;;;;;6.73;3.30;;;8.00;99.90;;;;;;6218514;23;20163;-87
2022/04/08 03:26:19;;;;;;;10.13;3.20;;;8.00;99.90;;;;;;6219231;23;20179;-86
2022/04/08 03:28:44;;;;;;;6.43;3.57;;;7.90;99.90;;;;;;6219659;23;20144;-86
2022/04/08 03:31:13;;;;;;;6.63;2.97;;;7.80;99.90;;;;;;6219872;23;20719;-87
2022/04/08 03:33:39;;;;;;;9.60;3.23;;;7.80;99.90;;;;;;6220257;23;20144;-86
2022/04/08 03:36:05;;;;;;;11.07;3.77;;;7.70;99.90;;;;;;6220270;23;20219;-87
2022/04/08 03:38:31;;;;;;;8.07;2.80;;;7.70;99.90;;;;;;6218552;23;20150;-86
2022/04/08 03:40:56;;;;;;;4.93;2.77;;;7.80;99.90;;;;;;6218855;23;20147;-86
2022/04/08 03:43:22;;;;;;;7.20;3.17;;;7.80;99.90;;;;;;6219289;23;20213;-86
2022/04/08 03:45:47;;;;;;;6.63;2.80;;;7.90;99.90;;;;;;6219107;23;20151;-86
2022/04/08 03:48:14;;;;;;;5.90;2.70;;;7.90;99.90;;;;;;6221289;23;20211;-86
2022/04/08 03:50:40;;;;;;;9.00;2.77;;;7.80;99.90;;;;;;6221038;23;20191;-86
2022/04/08 03:53:09;;;;;;;5.77;3.00;;;7.80;99.90;;;;;;6221391;23;20151;-86
2022/04/08 03:55:35;;;;;;;7.37;3.37;;;7.80;99.90;;;;;;6221353;23;20163;-86
2022/04/08 03:58:00;;;;;;;7.47;2.63;;;7.80;99.90;;;;;;6221338;23;20155;-86
2022/04/08 04:00:26;;;;;;;8.30;3.07;;;7.80;99.90;;;;;;6221083;23;20144;-86
2022/04/08 04:02:52;;;;;;;7.77;2.80;;;7.80;99.90;;;;;;6220003;23;20150;-86
2022/04/08 04:05:17;;;;;;;7.27;3.43;;;7.70;99.90;;;;;;6220897;23;20214;-86
2022/04/08 04:07:43;;;;;;;8.57;2.63;;;7.60;99.90;;;;;;6220443;23;20515;-86
2022/04/08 04:10:09;;;;;;;5.20;2.60;;;7.50;99.90;;;;;;6220677;23;20230;-86
2022/04/08 04:12:34;;;;;;;7.17;3.00;;;7.50;99.90;;;;;;6221019;23;20152;-86
2022/04/08 04:15:00;;;;;;;7.20;2.87;;;7.60;99.90;;;;;;6221749;23;20151;-86
2022/04/08 04:17:28;;;;;;;5.57;2.70;;;7.70;99.90;;;;;;6220657;23;20480;-86
2022/04/08 04:19:53;;;;;;;7.17;3.00;;;7.70;99.90;;;;;;6220947;23;20154;-86
2022/04/08 04:22:19;;;;;;;6.87;2.67;;;7.70;99.90;;;;;;6219847;23;20143;-86
2022/04/08 04:24:45;;;;;;;8.40;2.53;;;7.60;99.90;;;;;;6220646;23;20179;-86
2022/04/08 04:27:11;;;;;;;4.47;2.53;;;7.60;99.90;;;;;;6220042;23;20186;-87
2022/04/08 04:29:36;;;;;;;7.53;2.80;;;7.60;99.90;;;;;;6219781;23;20178;-86
2022/04/08 04:32:03;;;;;;;5.13;2.40;;;7.80;99.90;;;;;;6220998;23;20147;-86
2022/04/08 04:34:29;;;;;;;5.40;2.57;;;7.80;99.90;;;;;;6220295;23;20167;-86
2022/04/08 04:36:54;;;;;;;6.90;2.57;;;7.70;99.90;;;;;;6220085;23;20238;-86
2022/04/08 04:39:20;;;;;;;5.83;2.33;;;7.50;99.90;;;;;;6220783;23;20144;-86
2022/04/08 04:41:47;;;;;;;6.87;2.40;;;7.40;99.90;;;;;;6220211;23;20147;-86
2022/04/08 04:44:12;;;;;;;11.20;2.70;;;7.50;99.90;;;;;;6221236;23;20197;-86
2022/04/08 04:46:38;;;;;;;5.67;2.53;;;7.70;99.90;;;;;;6220570;23;20237;-86
2022/04/08 04:49:04;;;;;;;11.20;2.83;;;7.70;99.90;;;;;;6220628;23;20143;-84
2022/04/08 04:51:30;;;;;;;5.60;2.60;;;7.70;99.90;;;;;;6220387;23;20170;-85
2022/04/08 04:53:57;;;;;;;6.53;2.27;;;7.70;99.90;;;;;;6218765;23;20151;-85
2022/04/08 04:56:23;;;;;;;4.33;2.27;;;7.60;99.90;;;;;;6220097;23;20147;-85
2022/04/08 04:58:48;;;;;;;9.60;2.20;;;7.60;99.90;;;;;;6219317;23;20148;-85
2022/04/08 05:01:15;;;;;;;7.03;2.40;;;7.70;99.90;;;;;;6220252;23;20627;-84
2022/04/08 05:03:40;;;;;;;8.13;2.47;;;7.70;99.90;;;;;;6219715;23;20306;-85
2022/04/08 05:06:06;;;;;;;4.80;2.37;;;7.60;99.90;;;;;;6219674;23;20194;-85
2022/04/08 05:08:31;;;;;;;6.10;2.30;;;7.70;99.90;;;;;;6219859;23;20147;-85
2022/04/08 05:10:58;;;;;;;4.80;2.10;;;7.70;99.90;;;;;;6220347;23;20498;-85
2022/04/08 05:13:25;;;;;;;5.37;2.20;;;7.70;99.90;;;;;;6219676;23;20183;-85
2022/04/08 05:15:51;;;;;;;6.90;2.10;;;7.70;99.90;;;;;;6219696;23;20226;-85
2022/04/08 05:18:17;;;;;;;7.83;1.97;;;7.50;99.90;;;;;;6219560;23;20231;-85
2022/04/08 05:20:42;;;;;;;10.50;2.90;;;7.60;99.90;;;;;;6219352;23;20160;-85
2022/04/08 05:23:08;;;;;;;7.13;2.53;;;7.70;99.90;;;;;;6220756;23;20143;-86
2022/04/08 05:25:34;;;;;;;8.63;2.20;;;7.70;99.90;;;;;;6219838;23;20190;-85
2022/04/08 05:27:59;;;;;;;5.43;2.00;;;7.70;99.90;;;;;;6219960;23;20183;-85
2022/04/08 05:30:25;;;;;;;8.87;2.53;;;7.70;99.90;;;;;;6219806;23;20652;-85
2022/04/08 05:32:51;;;;;;;5.90;2.03;;;7.70;99.90;;;;;;6219699;23;20151;-85
2022/04/08 05:35:17;;;;;;;7.60;2.53;;;7.80;99.90;;;;;;6219732;23;20178;-85
2022/04/08 05:37:47;;;;;;;6.07;2.20;;;7.90;99.90;;;;;;6219586;23;20186;-85
2022/04/08 05:40:15;;;;;;;6.87;2.23;;;8.00;99.90;;;;;;6219560;23;20643;-85
2022/04/08 05:42:46;;;;;;;12.37;2.70;;;7.80;99.90;;;;;;6218783;23;20484;-86
2022/04/08 05:45:22;;;;;;;9.77;1.93;;;7.80;99.90;;;;;;6218731;23;20152;-85
2022/04/08 05:47:54;;;;;;;4.23;2.00;;;7.90;99.90;;;;;;6218370;23;20235;-85
2022/04/08 05:50:20;;;;;;;8.37;2.03;;;7.90;99.90;;;;;;6220260;23;20223;-86
2022/04/08 05:52:47;;;;;;;6.60;1.97;;;8.00;99.90;;;;;;6223503;23;20163;-85
2022/04/08 05:55:13;;;;;;;5.37;2.17;;;8.10;99.90;;;;;;6217833;23;20239;-85
2022/04/08 05:57:42;;;;;;;5.20;2.23;;;8.10;99.90;;;;;;6216324;23;20175;-84
2022/04/08 06:00:13;;;;;;;10.47;2.20;;;8.10;99.90;;;;;;6217216;23;20211;-84
2022/04/08 06:02:40;;;;;;;5.83;2.23;;;8.10;99.90;;;;;;6217001;23;20201;-85
2022/04/08 06:05:07;;;;;;;11.23;2.37;;;8.10;99.90;;;;;;6217141;23;20457;-84
2022/04/08 06:07:33;;;;;;;5.17;2.10;;;8.10;99.90;;;;;;6217130;23;20190;-84
2022/04/08 06:10:02;;;;;;;10.87;2.10;;;8.00;99.90;;;;;;6218366;23;20148;-84
2022/04/08 06:12:28;;;;;;;7.40;1.93;;;8.10;99.90;;;;;;6219034;23;20147;-83
2022/04/08 06:14:54;;;;;;;5.20;2.13;;;8.10;99.90;;;;;;6218717;23;20234;-84
2022/04/08 06:17:20;;;;;;;4.77;2.10;;;8.10;99.90;;;;;;6218458;23;20143;-84
2022/04/08 06:19:47;;;;;;;6.17;2.77;;;8.10;99.90;;;;;;6217708;23;20156;-83
2022/04/08 06:22:13;;;;;;;6.77;2.00;;;8.10;99.90;;;;;;6218673;23;20167;-85
2022/04/08 06:24:39;;;;;;;4.33;2.33;;;8.30;99.90;;;;;;6218474;23;20154;-84
2022/04/08 06:27:05;;;;;;;4.60;2.07;;;8.30;99.90;;;;;;6218536;23;20514;-84
2022/04/08 06:29:31;;;;;;;4.97;1.93;;;8.30;99.90;;;;;;6219190;23;20539;-84
2022/04/08 06:31:56;;;;;;;6.47;2.33;;;8.30;99.90;;;;;;6217997;23;20223;-84
2022/04/08 06:34:22;;;;;;;8.40;2.20;;;8.40;99.90;;;;;;6218155;23;20228;-84
2022/04/08 06:36:48;;;;;;;9.00;2.60;;;8.50;99.90;;;;;;6218856;23;20200;-84
2022/04/08 06:39:13;;;;;;;5.13;2.40;;;8.50;99.90;;;;;;6219154;23;20143;-83
2022/04/08 06:41:40;;;;;;;5.67;2.60;;;8.60;99.90;;;;;;6219045;23;20236;-83
2022/04/08 06:44:06;;;;;;;7.73;1.90;;;8.60;99.90;;;;;;6245433;23;20139;-83
2022/04/08 06:46:31;;;;;;;5.37;1.90;;;8.60;99.90;;;;;;6217231;23;20180;-83
2022/04/08 06:49:02;;;;;;;7.97;2.50;;;8.60;99.90;;;;;;6219130;23;20163;-84
2022/04/08 06:51:31;;;;;;;3.97;1.90;;;8.40;99.90;;;;;;6218410;23;20175;-83
2022/04/08 06:53:56;;;;;;;3.90;1.50;;;8.50;99.90;;;;;;6218751;23;20147;-83
2022/04/08 06:56:22;;;;;;;4.70;1.63;;;8.50;99.90;;;;;;6244942;23;20162;-84
2022/04/08 06:58:47;;;;;;;5.60;1.97;;;8.60;99.90;;;;;;6218702;23;20240;-83
2022/04/08 07:01:13;;;;;;;3.03;1.53;;;8.60;99.90;;;;;;6218522;23;20578;-84
2022/04/08 07:03:38;;;;;;;9.43;1.57;;;8.60;99.90;;;;;;6218653;23;20154;-84
2022/04/08 07:06:04;;;;;;;5.73;2.17;;;8.60;99.90;;;;;;6218789;23;20156;-86
2022/04/08 07:08:29;;;;;;;8.20;4.37;;;8.70;99.90;;;;;;6218435;23;20643;-82
2022/04/08 07:10:55;;;;;;;5.50;2.47;;;8.80;99.90;;;;;;6218376;23;20148;-84
2022/04/08 07:13:22;;;;;;;10.03;2.23;;;8.80;99.90;;;;;;6218293;23;20218;-83
2022/04/08 07:15:47;;;;;;;6.70;1.83;;;8.80;99.90;;;;;;6243316;23;20162;-83
2022/04/08 07:18:13;;;;;;;6.50;1.63;;;8.90;99.90;;;;;;6217493;23;20242;-83
2022/04/08 07:20:38;;;;;;;5.10;1.60;;;8.90;99.90;;;;;;6218084;23;20141;-83
2022/04/08 07:23:05;;;;;;;6.03;1.90;;;8.90;99.90;;;;;;6218158;23;20162;-83
2022/04/08 07:25:31;;;;;;;5.33;1.70;;;9.00;99.90;;;;;;6218227;23;20162;-83
2022/04/08 07:27:58;;;;;;;7.30;1.80;;;9.00;99.90;;;;;;6243269;23;20270;-83
2022/04/08 07:30:24;;;;;;;8.33;3.50;;;9.00;99.90;;;;;;6217922;23;20156;-82
2022/04/08 07:32:52;;;;;;;5.10;2.00;;;9.10;99.90;;;;;;6218222;23;20581;-83
2022/04/08 07:35:18;;;;;;;6.67;1.67;;;9.10;99.90;;;;;;6242729;23;20175;-83
2022/04/08 07:37:44;;;;;;;6.53;1.60;;;9.10;99.90;;;;;;6217599;23;20150;-83
2022/04/08 07:40:12;;;;;;;8.00;1.50;;;9.10;99.90;;;;;;6218451;23;20642;-83
2022/04/08 07:42:38;;;;;;;9.23;1.80;;;9.20;99.90;;;;;;6217049;23;20219;-83
2022/04/08 07:45:05;;;;;;;4.53;1.50;;;9.20;99.90;;;;;;6218101;23;20151;-83
2022/04/08 07:47:31;;;;;;;5.97;1.70;;;9.20;99.90;;;;;;6217895;23;20195;-83
2022/04/08 07:50:01;;;;;;;6.17;1.70;;;9.20;99.90;;;;;;6244117;22;20169;-82
2022/04/08 07:52:28;;;;;;;6.50;1.60;;;9.30;99.90;;;;;;6217873;23;20144;-82
2022/04/08 07:54:54;;;;;;;8.27;1.60;;;9.40;99.90;;;;;;6217572;23;20156;-83
2022/04/08 07:57:20;;;;;;;7.70;1.43;;;9.30;99.90;;;;;;6217111;23;20151;-82
2022/04/08 07:59:46;;;;;;;3.90;1.40;;;9.40;99.90;;;;;;6217610;23;20149;-82
2022/04/08 08:02:11;;;;;;;8.63;1.40;;;9.50;99.90;;;;;;6217276;23;20180;-82
2022/04/08 08:04:38;;;;;;;5.30;1.53;;;9.50;99.90;;;;;;6217872;23;20157;-83
2022/04/08 08:07:03;;;;;;;6.37;1.93;;;9.50;99.90;;;;;;6217872;23;20698;-83
2022/04/08 08:09:29;;;;;;;6.27;1.50;;;9.60;99.90;;;;;;6242551;23;20193;-83
2022/04/08 08:11:55;;;;;;;5.53;1.70;;;9.60;99.90;;;;;;6242879;23;20175;-83
2022/04/08 08:14:20;;;;;;;9.33;2.00;;;9.80;99.90;;;;;;6243018;23;20209;-82
2022/04/08 08:16:46;;;;;;;12.07;2.43;;;10.10;99.90;;;;;;6218006;23;20154;-82
2022/04/08 08:19:11;;;;;;;7.37;1.70;;;10.10;99.90;;;;;;6243541;23;20193;-82
2022/04/08 08:21:38;;;;;;;9.80;1.60;;;10.20;99.90;;;;;;6217591;23;20147;-82
2022/04/08 08:24:04;;;;;;;5.73;1.97;;;10.30;99.90;;;;;;6244610;23;20145;-82
2022/04/08 08:26:30;;;;;;;6.97;1.87;;;10.10;99.90;;;;;;6244762;23;20193;-83
2022/04/08 08:28:56;;;;;;;9.43;2.20;;;10.10;99.90;;;;;;6217304;23;20207;-82
2022/04/08 08:31:22;;;;;;;6.03;1.90;;;10.20;99.90;;;;;;6217883;23;20576;-82
2022/04/08 08:33:49;;;;;;;6.87;2.00;;;10.20;99.90;;;;;;6245553;23;20253;-82
2022/04/08 08:36:14;;;;;;;5.70;2.00;;;10.20;99.90;;;;;;6218683;23;20164;-82
2022/04/08 08:38:40;;;;;;;4.27;1.27;;;10.30;99.90;;;;;;6219677;23;20152;-82
2022/04/08 08:41:07;;;;;;;5.43;1.87;;;10.20;99.90;;;;;;6219782;23;20560;-82
2022/04/08 08:43:33;;;;;;;4.23;1.50;;;10.30;99.90;;;;;;6218625;23;20151;-82
2022/04/08 08:46:02;;;;;;;6.03;1.40;;;10.20;99.90;;;;;;6219645;23;20159;-82
2022/04/08 08:48:32;;;;;;;8.17;1.67;;;10.10;99.90;;;;;;6219570;23;20575;-83
2022/04/08 08:51:01;;;;;;;6.70;1.50;;;10.30;99.90;;;;;;6245494;22;20167;-82
2022/04/08 08:53:32;;;;;;;5.73;2.13;;;10.50;98.80;;;;;;6218359;23;20240;-83
2022/04/08 08:55:59;;;;;;;7.97;1.50;;;10.60;98.60;;;;;;6219507;23;20619;-84
2022/04/08 08:58:24;;;;;;;5.23;1.03;;;10.60;98.50;;;;;;6219242;23;20525;-82
2022/04/08 09:00:50;;;;;;;5.57;1.50;;;10.60;98.30;;;;;;6219482;23;20614;-83
2022/04/08 09:03:16;;;;;;;6.43;1.40;;;10.60;97.40;;;;;;6219020;23;20152;-82
2022/04/08 09:05:45;;;;;;;4.30;1.30;;;10.50;97.40;;;;;;6219497;23;20492;-82
2022/04/08 09:08:13;;;;;;;8.67;1.60;;;10.50;98.10;;;;;;6244395;23;20671;-81
2022/04/08 09:10:43;;;;;;;7.67;1.50;;;10.60;98.40;;;;;;6220034;23;20197;-82
2022/04/08 09:13:10;;;;;;;8.40;1.50;;;10.70;97.70;;;;;;6217867;23;20153;-82
2022/04/08 09:15:39;;;;;;;4.60;1.67;;;10.60;97.80;;;;;;6245822;23;20599;-83
2022/04/08 09:21:31;;;;;;;4.70;1.73;;;10.30;99.10;;;;;;6182415;23;20551;-89
2022/04/08 09:24:05;;;;;;;8.57;1.70;;;10.50;98.20;;;;;;6184342;23;20192;-89
2022/04/08 09:26:35;;;;;;;8.73;2.60;;;10.50;98.80;;;;;;6214433;23;20186;-90
2022/04/08 09:43:13;;;;;;;6.53;1.57;;;10.40;98.00;;;;;;6043394;23;20219;-90
2022/04/08 09:45:45;;;;;;;6.33;1.40;;;10.30;96.80;;;;;;6046639;23;20327;-91
2022/04/08 09:48:28;;;;;;;7.40;1.80;;;10.20;97.30;;;;;;6215767;23;20197;-91
2022/04/08 09:51:09;;;;;;;6.63;1.50;;;10.10;98.20;;;;;;6212252;23;20175;-92
2022/04/08 09:53:50;;;;;;;8.57;1.87;;;10.30;97.90;;;;;;6219079;23;20150;-91
2022/04/08 09:59:51;;;;;;;;;;;;;;;;;;;;;
2022/04/08 10:02:47;;;;;;;;;;;;;;;;;;;;;
2022/04/08 10:08:44;;;;;;;6.77;1.60;;;10.70;95.60;;;;;;6234186;23;20242;-90
2022/04/08 10:11:36;;;;;;;3.77;1.20;;;10.70;95.10;;;;;;6219533;23;20148;-91
2022/04/08 10:14:27;;;;;;;3.53;1.73;;;10.80;95.10;;;;;;6219806;23;20492;-90
2022/04/08 10:16:57;;;;;;;8.03;1.60;;;10.90;95.60;;;;;;6165931;23;20179;-91
2022/04/08 10:19:33;;;;;;;5.63;1.93;;;11.00;95.80;;;;;;6217769;23;20147;-90
2022/04/08 10:22:01;;;;;;;3.53;1.70;;;11.00;96.20;;;;;;6219812;23;20189;-90
2022/04/08 10:24:29;;;;;;;7.43;2.07;;;11.00;96.40;;;;;;6219675;23;20163;-90
2022/04/08 10:27:19;;;;;;;;;;;;;;;;;;;;;
2022/04/08 10:29:54;;;;;;;4.60;1.80;;;11.00;96.40;;;;;;6247973;23;20211;-89
2022/04/08 10:32:29;;;;;;;5.93;1.77;;;11.00;96.60;;;;;;6219704;23;20155;-91
2022/04/08 10:35:40;;;;;;;6.67;1.73;;;11.10;96.50;;;;;;6219923;23;20209;-90
2022/04/08 10:38:08;;;;;;;3.97;1.60;;;11.30;95.40;;;;;;6209730;23;20158;-90
2022/04/08 10:40:36;;;;;;;6.37;1.77;;;11.40;94.00;;;;;;6219180;23;20238;-90
2022/04/08 10:43:07;;;;;;;3.60;1.47;;;11.40;94.20;;;;;;6219400;23;20167;-91
2022/04/08 10:45:33;;;;;;;3.57;1.20;;;11.40;93.00;;;;;;6218445;23;20147;-90
2022/04/08 10:48:13;;;;;;;8.17;1.60;;;11.40;92.10;;;;;;6219832;23;20194;-91
2022/04/08 10:50:40;;;;;;;4.83;1.77;;;11.20;93.00;;;;;;6219198;23;20651;-90
2022/04/08 10:53:17;;;;;;;2.63;1.27;;;11.30;93.00;;;;;;6219046;23;20189;-91
2022/04/08 10:55:54;;;;;;;6.50;1.73;;;11.20;93.30;;;;;;6220028;23;20170;-91
2022/04/08 10:58:39;;;;;;;4.83;1.50;;;11.30;92.30;;;;;;6217907;23;20158;-91
2022/04/08 11:01:16;;;;;;;6.53;1.40;;;11.40;92.60;;;;;;6218507;23;20659;-90
2022/04/08 11:04:32;;;;;;;4.87;1.00;;;11.50;92.50;;;;;;6219181;23;20153;-91
2022/04/08 11:07:51;;;;;;;5.27;1.57;;;11.60;91.50;;;;;;6244721;23;20266;-91
2022/04/08 11:10:31;;;;;;;5.33;1.40;;;11.60;91.20;;;;;;6152081;23;20234;-91
2022/04/08 11:12:59;;;;;;;4.33;1.53;;;11.50;91.20;;;;;;6218357;23;20151;-92
2022/04/08 11:15:28;;;;;;;9.47;1.63;;;11.50;91.00;;;;;;6219335;23;20152;-89
2022/04/08 11:17:54;;;;;;;34.40;14.10;;;11.40;91.40;;;;;;6218536;23;20273;-90
2022/04/08 11:20:24;;;;;;;9.60;3.30;;;11.30;91.90;;;;;;6218092;23;20147;-91
2022/04/08 11:23:14;;;;;;;5.30;1.93;;;11.40;91.90;;;;;;6218117;23;20159;-90
2022/04/08 11:26:10;;;;;;;3.77;1.40;;;11.60;91.60;;;;;;6219124;23;20163;-91
2022/04/08 11:28:48;;;;;;;3.83;1.07;;;11.60;91.20;;;;;;6222512;23;20227;-90
2022/04/08 11:31:20;;;;;;;23.07;9.23;;;11.60;91.30;;;;;;6225736;23;20155;-90
2022/04/08 11:34:01;;;;;;;28.97;12.47;;;11.60;91.00;;;;;;6221643;23;20156;-91
2022/04/08 11:37:24;;;;;;;16.73;8.00;;;11.80;91.30;;;;;;6219192;23;20163;-91
2022/04/08 11:39:57;;;;;;;5.13;1.83;;;11.80;90.40;;;;;;6185509;23;20228;-89
2022/04/08 11:42:49;;;;;;;;;;;;;;;;;;;;;
2022/04/08 11:45:16;;;;;;;6.30;2.50;;;11.90;90.60;;;;;;6246527;23;20700;-88
2022/04/08 11:47:49;;;;;;;5.37;1.17;;;12.00;91.00;;;;;;6221823;23;20199;-88
2022/04/08 11:50:25;;;;;;;6.60;1.23;;;12.00;90.90;;;;;;6223196;23;20506;-89
2022/04/08 11:52:58;;;;;;;3.07;1.20;;;12.10;90.30;;;;;;6219447;23;20229;-88
2022/04/08 11:55:26;;;;;;;7.27;1.30;;;12.20;89.80;;;;;;6219986;23;20157;-88
2022/04/08 11:57:53;;;;;;;6.03;1.33;;;12.20;90.00;;;;;;6220039;23;20156;-88
2022/04/08 12:00:25;;;;;;;3.87;1.57;;;12.30;88.90;;;;;;6222101;23;20157;-89
2022/04/08 12:02:51;;;;;;;2.57;1.20;;;12.30;89.30;;;;;;6226170;23;20650;-89
2022/04/08 12:05:29;;;;;;;3.70;1.10;;;12.40;90.20;;;;;;6221990;23;20151;-89
2022/04/08 12:07:59;;;;;;;2.03;1.10;;;12.60;89.40;;;;;;6220769;23;20186;-88
2022/04/08 12:10:26;;;;;;;4.87;1.07;;;12.80;87.40;;;;;;6220550;23;20156;-91
2022/04/08 12:12:53;;;;;;;4.23;1.10;;;12.90;86.30;;;;;;6220573;23;20226;-89
2022/04/08 12:15:22;;;;;;;3.93;1.30;;;12.80;86.40;;;;;;6220825;23;20165;-89
2022/04/08 12:17:50;;;;;;;5.80;0.90;;;12.80;87.80;;;;;;6220581;23;20157;-88
2022/04/08 12:20:21;;;;;;;3.67;1.20;;;12.70;85.70;;;;;;6220819;23;20460;-89
2022/04/08 12:22:48;;;;;;;7.70;1.23;;;12.50;87.00;;;;;;6221010;23;20231;-88
2022/04/08 12:25:15;;;;;;;3.40;1.00;;;12.40;87.10;;;;;;6220112;23;20156;-89
2022/04/08 12:27:41;;;;;;;4.57;1.23;;;12.40;87.60;;;;;;6220649;23;20183;-88
2022/04/08 12:30:11;;;;;;;4.97;1.30;;;12.60;87.10;;;;;;6220912;23;20144;-89
2022/04/08 12:32:43;;;;;;;3.47;1.10;;;12.80;85.80;;;;;;6220836;23;20226;-89
2022/04/08 12:35:11;;;;;;;3.23;1.00;;;12.80;87.80;;;;;;6219327;23;20536;-89
2022/04/08 12:37:37;;;;;;;7.70;1.37;;;12.80;87.40;;;;;;6219871;23;20160;-89
2022/04/08 12:40:06;;;;;;;5.13;1.30;;;12.70;86.40;;;;;;6220528;23;20227;-88
2022/04/08 12:42:36;;;;;;;6.40;1.30;;;12.70;88.00;;;;;;6220000;23;20229;-88
2022/04/08 12:45:03;;;;;;;4.57;1.30;;;12.90;87.70;;;;;;6220658;23;20227;-89
2022/04/08 12:47:29;;;;;;;4.83;1.40;;;13.10;87.80;;;;;;6221314;23;20179;-89
2022/04/08 12:49:55;;;;;;;6.73;1.53;;;13.20;86.20;;;;;;6220194;23;20174;-89
2022/04/08 12:52:21;;;;;;;5.27;1.63;;;13.30;86.00;;;;;;6220572;23;20176;-88
2022/04/08 12:54:49;;;;;;;3.50;1.67;;;13.40;86.30;;;;;;6220769;23;20577;-89
2022/04/08 12:57:15;;;;;;;6.10;2.20;;;13.40;87.10;;;;;;6220618;23;20211;-89
2022/04/08 12:59:41;;;;;;;8.77;2.00;;;13.50;87.60;;;;;;6220834;23;20365;-89
2022/04/08 13:02:07;;;;;;;8.37;2.00;;;13.50;87.80;;;;;;6220772;23;20160;-88
2022/04/08 13:04:35;;;;;;;5.03;2.00;;;13.60;87.70;;;;;;6220242;23;20235;-89
2022/04/08 13:07:02;;;;;;;4.43;1.77;;;13.80;86.60;;;;;;6221084;23;20190;-89
2022/04/08 13:09:28;;;;;;;3.57;1.50;;;13.80;87.40;;;;;;6220517;23;20552;-89
2022/04/08 13:11:55;;;;;;;3.63;1.70;;;13.90;86.70;;;;;;6220640;23;20586;-88
2022/04/08 13:14:21;;;;;;;7.80;2.50;;;13.80;87.70;;;;;;6220364;23;20158;-89
2022/04/08 13:16:47;;;;;;;7.80;1.50;;;13.80;87.80;;;;;;6220423;23;20152;-86
2022/04/08 13:19:13;;;;;;;7.27;1.93;;;13.90;88.30;;;;;;6219739;23;20591;-90
2022/04/08 13:21:39;;;;;;;8.57;1.77;;;13.80;87.60;;;;;;6220444;23;20144;-89
2022/04/08 13:24:06;;;;;;;6.20;1.40;;;13.80;88.70;;;;;;6220618;23;20154;-89
2022/04/08 13:26:32;;;;;;;9.80;1.93;;;13.80;88.10;;;;;;6219727;23;20172;-89
2022/04/08 13:28:58;;;;;;;5.40;1.70;;;13.90;87.60;;;;;;6220254;23;20164;-90